CheckWX is a tool to help pilots better visualize weather data.  It is not intended as a substitute for an official pre-flight weather briefing.

17:28:59 UTC

UWWW TAF
Kurumoch International Airport
Samara, Russian Federation
TAF UWWW 241359Z 2415/2515 09003G08MPS 2100 -SN BR BKN007 TX02/2512Z TNM01/2502Z TEMPO 2415/2505 13006G13MPS 0300 +SHSNRA FZDZ FZFG VV002 BECMG 2505/2507 25007G13MPS TEMPO 2507/2515 27010G16MPS 0800 +SHSNRA VV004

Mar-24@
15:00 UTC

Mar-24 @ 15:00 UTC

Mar-25@
05:00 UTC

Mar-25 @ 05:00 UTC

TAF UWWW 241359Z 2415/2515 09003G08MPS 2100 -SN BR BKN007 TX02/2512Z TNM01/2502Z
Wind
  • 090° at 6 KTS
  • {Gusting to 16 KTS
Conditions
Light Snow, Mist
Cloud Levels
  • Broken at 700' AGL

Mar-24@
15:00 UTC

Mar-24 @ 15:00 UTC

Mar-25@
05:00 UTC

Mar-25 @ 05:00 UTC

TEMPO 2415/2505 13006G13MPS 0300 +SHSNRA FZDZ FZFG VV002

Temporary

Temporary Changes expected for less than half the time period

Wind
  • 130° at 12 KTS
  • {Gusting to 25 KTS
Conditions
Heavy Snow, Heavy Rain, Freezing Drizzle, Freezing Fog
Cloud Levels
  • Vertical visibility at 200' AGL

Mar-25@
05:00 UTC

Mar-25 @ 05:00 UTC

Mar-25@
15:00 UTC

Mar-25 @ 15:00 UTC

BECMG 2505/2507 25007G13MPS

Becoming

Becoming Conditions expected by Mon, Mar 25, 2019 @ 07:00 UTC

Wind
  • 250° at 14 KTS
  • {Gusting to 25 KTS
Conditions
Light Snow, Mist
Cloud Levels
  • Broken at 700' AGL

Mar-25@
07:00 UTC

Mar-25 @ 07:00 UTC

Mar-25@
15:00 UTC

Mar-25 @ 15:00 UTC

TEMPO 2507/2515 27010G16MPS 0800 +SHSNRA VV004

Temporary

Temporary Changes expected for less than half the time period

Wind
  • 270° at 19 KTS
  • {Gusting to 31 KTS
Conditions
Heavy Snow, Heavy Rain
Cloud Levels
  • Vertical visibility at 400' AGL